createdAt,value
2019-02-22T00:02:14.281Z,17.10
2019-02-22T00:04:43.213Z,19.77
2019-02-22T00:07:12.055Z,21.27
2019-02-22T00:09:49.097Z,22.83
2019-02-22T00:12:11.574Z,22.93
2019-02-22T00:14:40.506Z,22.67
2019-02-22T00:17:09.427Z,21.40
2019-02-22T00:19:38.699Z,23.93
2019-02-22T00:22:07.539Z,16.77
2019-02-22T00:24:36.682Z,20.77
2019-02-22T00:27:05.594Z,22.77
2019-02-22T00:29:34.776Z,22.33
2019-02-22T00:32:03.702Z,21.73
2019-02-22T00:34:32.871Z,20.00
2019-02-22T00:37:02.094Z,19.40
2019-02-22T00:39:31.061Z,24.13
2019-02-22T00:41:59.928Z,23.80
2019-02-22T00:44:28.846Z,16.67
2019-02-22T00:46:57.697Z,23.50
2019-02-22T00:49:26.826Z,22.83
2019-02-22T00:51:55.678Z,19.50
2019-02-22T00:54:24.817Z,21.10
2019-02-22T00:56:54.371Z,18.50
2019-02-22T00:59:23.214Z,19.87
2019-02-22T01:01:52.070Z,18.20
2019-02-22T01:04:20.911Z,17.43
2019-02-22T01:06:49.834Z,18.23
2019-02-22T01:09:18.975Z,19.50
2019-02-22T01:11:48.583Z,19.60
2019-02-22T01:14:17.429Z,15.97
2019-02-22T01:16:46.366Z,15.03
2019-02-22T01:19:15.214Z,25.03
2019-02-22T01:21:44.137Z,17.30
2019-02-22T01:24:13.050Z,19.80
2019-02-22T01:26:41.898Z,22.40
2019-02-22T01:29:11.065Z,25.13
2019-02-22T01:31:39.986Z,18.50
2019-02-22T01:34:08.906Z,19.80
2019-02-22T01:36:37.755Z,17.73
2019-02-22T01:39:06.854Z,24.13
2019-02-22T01:41:35.714Z,15.87
2019-02-22T01:44:04.698Z,22.30
2019-02-22T01:46:33.628Z,20.50
2019-02-22T01:49:02.766Z,18.50
2019-02-22T01:51:31.628Z,15.43
2019-02-22T01:54:00.468Z,17.27
2019-02-22T01:56:29.646Z,14.80
2019-02-22T01:58:58.490Z,23.07
2019-02-22T02:01:27.409Z,19.73
2019-02-22T02:03:56.321Z,23.60
2019-02-22T02:06:25.171Z,24.00
2019-02-22T02:08:54.310Z,17.07
2019-02-22T02:11:23.541Z,17.30
2019-02-22T02:13:52.382Z,19.43
2019-02-22T02:16:21.505Z,17.50
2019-02-22T02:18:50.333Z,15.90
2019-02-22T02:21:19.261Z,14.60
2019-02-22T02:23:48.106Z,16.23
2019-02-22T02:26:16.953Z,14.40
2019-02-22T02:28:45.794Z,15.90
2019-02-22T02:31:14.647Z,16.70
2019-02-22T02:33:43.895Z,14.87
2019-02-22T02:36:12.746Z,20.63
2019-02-22T02:38:41.586Z,15.50
2019-02-22T02:41:11.606Z,19.60
2019-02-22T02:43:40.668Z,19.67
2019-02-22T02:46:09.843Z,16.67
2019-02-22T02:48:38.771Z,17.90
2019-02-22T02:51:07.613Z,18.07
2019-02-22T02:53:36.462Z,15.00
2019-02-22T02:56:05.310Z,17.93
2019-02-22T02:58:34.166Z,17.93
2019-02-22T03:01:03.006Z,17.83
2019-02-22T03:03:32.165Z,20.20
2019-02-22T03:06:09.134Z,17.97
2019-02-22T03:08:38.043Z,26.10
2019-02-22T03:11:06.898Z,21.10
2019-02-22T03:13:36.126Z,16.53
2019-02-22T03:16:05.110Z,17.90
2019-02-22T03:18:33.963Z,19.27
2019-02-22T03:21:03.410Z,18.60
2019-02-22T03:23:32.332Z,19.20
2019-02-22T03:26:01.608Z,18.80
2019-02-22T03:28:30.569Z,16.90
2019-02-22T03:30:59.559Z,16.90
2019-02-22T03:33:28.453Z,17.03
2019-02-22T03:35:58.267Z,17.03
2019-02-22T03:38:27.131Z,18.90
2019-02-22T03:40:56.402Z,16.80
2019-02-22T03:43:25.337Z,22.07
2019-02-22T03:45:54.575Z,18.27
2019-02-22T03:48:23.435Z,18.70
2019-02-22T03:50:52.567Z,19.77
2019-02-22T03:53:34.614Z,18.13
2019-02-22T03:56:03.871Z,17.20
2019-02-22T03:58:32.934Z,16.60
2019-02-22T04:01:01.862Z,15.63
2019-02-22T04:03:31.153Z,17.97
2019-02-22T04:06:00.097Z,19.70
2019-02-22T04:08:28.948Z,18.73
2019-02-22T04:10:58.154Z,24.13
2019-02-22T04:13:27.431Z,21.77
2019-02-22T04:15:56.271Z,20.70
2019-02-22T04:18:25.422Z,23.20
2019-02-22T04:20:54.613Z,22.13
2019-02-22T04:23:23.474Z,20.53
2019-02-22T04:25:52.308Z,24.30
2019-02-22T04:28:21.161Z,21.40
2019-02-22T04:30:50.017Z,18.03
2019-02-22T04:33:18.871Z,23.37
2019-02-22T04:35:47.717Z,21.03
2019-02-22T04:38:16.582Z,22.00
2019-02-22T04:40:46.154Z,19.87
2019-02-22T04:43:15.090Z,22.83
2019-02-22T04:45:44.022Z,19.10
2019-02-22T04:48:12.964Z,18.60
2019-02-22T04:50:41.821Z,21.80
2019-02-22T04:53:10.666Z,22.70
2019-02-22T04:55:39.509Z,21.03
2019-02-22T04:58:08.353Z,21.53
2019-02-22T05:00:37.486Z,21.40
2019-02-22T05:03:06.340Z,22.57
2019-02-22T05:05:35.269Z,24.30
2019-02-22T05:08:04.218Z,21.97
2019-02-22T05:10:33.066Z,19.77
2019-02-22T05:13:01.945Z,23.37
2019-02-22T05:15:30.930Z,22.37
2019-02-22T05:18:00.032Z,23.93
2019-02-22T05:20:29.051Z,21.30
2019-02-22T05:23:03.866Z,21.57
2019-02-22T05:25:28.545Z,24.00
2019-02-22T05:27:57.486Z,22.37
2019-02-22T05:30:26.660Z,25.00
2019-02-22T05:32:55.500Z,26.30
2019-02-22T05:35:24.621Z,23.33
2019-02-22T05:37:53.541Z,21.80
2019-02-22T05:40:22.719Z,23.70
2019-02-22T05:42:51.550Z,24.27
2019-02-22T05:45:20.542Z,23.57
2019-02-22T05:47:49.372Z,23.20
2019-02-22T05:50:18.639Z,26.03
2019-02-22T05:52:47.782Z,24.57
2019-02-22T05:55:16.982Z,25.33
2019-02-22T05:57:45.837Z,18.77
2019-02-22T06:00:16.198Z,26.03
2019-02-22T06:02:45.041Z,27.60
2019-02-22T06:05:14.066Z,25.47
2019-02-22T06:07:42.974Z,26.00
2019-02-22T06:10:12.323Z,25.50
2019-02-22T06:12:41.174Z,26.30
2019-02-22T06:15:10.187Z,25.60
2019-02-22T06:17:39.022Z,25.80
2019-02-22T06:20:08.357Z,27.13
2019-02-22T06:22:37.262Z,27.13
2019-02-22T06:25:06.803Z,29.70
2019-02-22T06:27:35.950Z,25.03
2019-02-22T06:30:05.434Z,22.73
2019-02-22T06:32:34.650Z,30.73
2019-02-22T06:35:04.045Z,23.60
2019-02-22T06:37:32.950Z,30.37
2019-02-22T06:40:02.299Z,25.97
2019-02-22T06:42:31.443Z,23.50
2019-02-22T06:45:00.395Z,26.30
2019-02-22T06:47:29.399Z,24.93
2019-02-22T06:49:58.575Z,28.50
2019-02-22T06:52:29.698Z,23.97
2019-02-22T06:54:58.174Z,23.70
2019-02-22T06:57:27.114Z,27.33
2019-02-22T06:59:56.339Z,21.83
2019-02-22T07:02:26.193Z,29.33
2019-02-22T07:04:55.087Z,27.47
2019-02-22T07:07:24.039Z,21.53
2019-02-22T07:09:53.235Z,24.03
2019-02-22T07:12:30.946Z,19.97
2019-02-22T07:14:59.802Z,24.73
2019-02-22T07:17:28.806Z,22.30
2019-02-22T07:19:58.018Z,24.87
2019-02-22T07:22:26.871Z,20.27
2019-02-22T07:24:55.743Z,22.27
2019-02-22T07:27:24.896Z,26.57
2019-02-22T07:29:53.746Z,23.63
2019-02-22T07:32:23.293Z,19.97
2019-02-22T07:34:52.209Z,23.93
2019-02-22T07:37:21.063Z,27.40
2019-02-22T07:39:50.021Z,26.40
2019-02-22T07:42:18.974Z,27.40
2019-02-22T07:44:48.262Z,23.00
2019-02-22T07:47:17.114Z,23.17
2019-02-22T07:49:46.397Z,22.43
2019-02-22T07:52:15.246Z,33.17
2019-02-22T07:54:44.438Z,30.60
2019-02-22T07:57:13.738Z,23.73
2019-02-22T07:59:43.424Z,32.20
2019-02-22T08:02:12.370Z,25.30
2019-02-22T08:04:41.561Z,19.63
2019-02-22T08:07:10.437Z,23.77
2019-02-22T08:09:39.303Z,22.53
2019-02-22T08:12:08.390Z,29.00
2019-02-22T08:14:37.530Z,27.90
2019-02-22T08:17:06.822Z,21.40
2019-02-22T08:19:36.024Z,20.93
2019-02-22T08:22:04.876Z,23.10
2019-02-22T08:24:33.993Z,20.63
2019-02-22T08:27:03.253Z,23.17
2019-02-22T08:29:32.169Z,36.20
2019-02-22T08:32:01.750Z,38.77
2019-02-22T08:34:30.671Z,41.60
2019-02-22T08:36:59.954Z,28.10
2019-02-22T08:39:28.807Z,26.27
2019-02-22T08:41:57.952Z,27.20
2019-02-22T08:44:26.794Z,26.57
2019-02-22T08:46:55.962Z,25.50
2019-02-22T08:49:24.815Z,26.50
2019-02-22T08:51:53.677Z,23.83
2019-02-22T08:54:22.532Z,29.37
2019-02-22T08:56:51.386Z,22.47
2019-02-22T08:59:20.234Z,24.07
2019-02-22T09:01:49.554Z,24.77
2019-02-22T09:04:18.452Z,21.83
2019-02-22T09:06:47.306Z,22.27
2019-02-22T09:09:16.226Z,22.83
2019-02-22T09:11:45.488Z,21.97
2019-02-22T09:14:14.613Z,27.47
2019-02-22T09:16:43.905Z,21.10
2019-02-22T09:19:12.774Z,26.63
2019-02-22T09:21:41.634Z,22.67
2019-02-22T09:24:10.767Z,23.03
2019-02-22T09:26:39.647Z,25.47
2019-02-22T09:29:08.749Z,21.93
2019-02-22T09:31:37.613Z,23.70
2019-02-22T09:34:06.859Z,22.67
2019-02-22T09:36:36.038Z,20.30
2019-02-22T09:39:06.609Z,23.07
2019-02-22T09:41:35.870Z,21.67
2019-02-22T09:44:04.883Z,20.37
2019-02-22T09:46:33.855Z,24.43
2019-02-22T09:49:02.731Z,23.70
2019-02-22T09:51:31.946Z,20.33
2019-02-22T09:54:01.221Z,27.50
2019-02-22T09:56:30.390Z,25.60
2019-02-22T09:58:59.885Z,20.67
2019-02-22T10:01:28.741Z,23.63
2019-02-22T10:03:57.678Z,24.67
2019-02-22T10:06:26.522Z,24.70
2019-02-22T10:08:55.658Z,22.23
2019-02-22T10:11:24.961Z,22.20
2019-02-22T10:13:53.880Z,31.53
2019-02-22T10:16:22.803Z,24.20
2019-02-22T10:18:51.663Z,31.10
2019-02-22T10:21:20.516Z,23.10
2019-02-22T10:24:08.580Z,30.63
2019-02-22T10:26:37.438Z,25.97
2019-02-22T10:29:06.613Z,25.97
2019-02-22T10:31:35.949Z,31.03
2019-02-22T10:34:04.827Z,26.57
2019-02-22T10:36:44.443Z,28.50
2019-02-22T10:39:06.191Z,33.40
2019-02-22T10:41:35.774Z,28.07
2019-02-22T10:44:04.814Z,34.27
2019-02-22T10:46:34.015Z,36.33
2019-02-22T10:49:03.554Z,25.70
2019-02-22T10:51:34.234Z,22.77
2019-02-22T10:54:03.938Z,29.83
2019-02-22T10:56:32.798Z,31.40
2019-02-22T10:59:01.773Z,29.43
2019-02-22T11:01:30.938Z,27.60
2019-02-22T11:04:00.606Z,28.10
2019-02-22T11:06:29.502Z,21.90
2019-02-22T11:08:58.698Z,29.37
2019-02-22T11:11:27.638Z,26.10
2019-02-22T11:13:56.890Z,28.50
2019-02-22T11:16:25.828Z,26.90
2019-02-22T11:18:54.767Z,31.90
2019-02-22T11:21:24.002Z,29.10
2019-02-22T11:23:53.473Z,26.40
2019-02-22T11:26:22.687Z,24.63
2019-02-22T11:28:51.539Z,26.30
2019-02-22T11:31:20.666Z,30.53
2019-02-22T11:33:49.861Z,36.97
2019-02-22T11:36:19.053Z,26.50
2019-02-22T11:38:48.221Z,31.03
2019-02-22T11:41:17.359Z,31.00
2019-02-22T11:43:46.510Z,30.63
2019-02-22T11:46:15.436Z,33.87
2019-02-22T11:48:44.966Z,33.60
2019-02-22T11:51:14.146Z,30.77
2019-02-22T11:53:43.107Z,29.27
2019-02-22T11:56:12.442Z,29.60
2019-02-22T11:58:41.377Z,34.47
2019-02-22T12:01:10.867Z,34.70
2019-02-22T12:03:39.868Z,33.43
2019-02-22T12:06:08.745Z,35.60
2019-02-22T12:08:37.846Z,34.37
2019-02-22T12:11:07.224Z,41.30
2019-02-22T12:13:36.165Z,36.47
2019-02-22T12:16:05.115Z,38.83
2019-02-22T12:18:36.462Z,35.93
2019-02-22T12:21:05.131Z,33.80
2019-02-22T12:23:34.054Z,36.10
2019-02-22T12:26:03.542Z,34.03
2019-02-22T12:28:32.943Z,35.90
2019-02-22T12:31:02.376Z,36.50
2019-02-22T12:33:31.881Z,36.90
2019-02-22T12:36:00.746Z,35.90
2019-02-22T12:38:29.938Z,35.23
2019-02-22T12:40:58.899Z,35.73
2019-02-22T12:43:27.765Z,37.70
2019-02-22T12:45:56.970Z,37.67
2019-02-22T12:48:26.948Z,32.83
2019-02-22T12:50:56.286Z,32.70
2019-02-22T12:53:25.217Z,35.83
2019-02-22T12:55:54.102Z,31.40
2019-02-22T12:58:23.330Z,34.03
2019-02-22T13:00:52.569Z,32.00
2019-02-22T13:03:21.812Z,38.83
2019-02-22T13:05:51.049Z,33.77
2019-02-22T13:08:20.062Z,34.70
2019-02-22T13:10:49.302Z,33.93
2019-02-22T13:13:18.610Z,33.37
2019-02-22T13:15:47.834Z,35.23
2019-02-22T13:18:16.670Z,31.43
2019-02-22T13:20:45.800Z,33.67
2019-02-22T13:23:15.605Z,33.83
2019-02-22T13:25:44.558Z,30.80
2019-02-22T13:28:14.484Z,29.93
2019-02-22T13:30:44.226Z,33.23
2019-02-22T13:33:13.151Z,32.33
2019-02-22T13:35:42.089Z,33.23
2019-02-22T13:38:11.001Z,29.57
2019-02-22T13:40:40.315Z,29.30
2019-02-22T13:43:09.608Z,29.13
2019-02-22T13:45:38.594Z,31.20
2019-02-22T13:48:07.809Z,34.27
2019-02-22T13:50:37.302Z,32.90
2019-02-22T13:53:06.261Z,36.80
2019-02-22T13:55:35.855Z,38.53
2019-02-22T13:58:07.352Z,32.87
2019-02-22T14:00:36.390Z,34.63
2019-02-22T14:03:05.415Z,32.80
2019-02-22T14:05:34.950Z,31.53
2019-02-22T14:08:04.070Z,35.63
2019-02-22T14:10:33.343Z,29.07
2019-02-22T14:13:02.542Z,25.70
2019-02-22T14:15:38.081Z,26.87
2019-02-22T14:18:02.606Z,28.27
2019-02-22T14:20:31.781Z,28.53
2019-02-22T14:23:03.418Z,23.97
2019-02-22T14:25:32.407Z,25.43
2019-02-22T14:28:01.627Z,25.17
2019-02-22T14:30:30.826Z,25.83
2019-02-22T14:33:00.022Z,24.40
2019-02-22T14:35:29.331Z,24.27
2019-02-22T14:37:58.627Z,26.90
2019-02-22T14:40:27.544Z,34.77
2019-02-22T14:42:56.818Z,28.87
2019-02-22T14:45:25.797Z,25.47
2019-02-22T14:47:55.004Z,21.10
2019-02-22T14:50:24.553Z,23.83
2019-02-22T14:52:54.539Z,23.10
2019-02-22T14:55:23.405Z,24.30
2019-02-22T14:57:52.619Z,26.87
2019-02-22T15:00:21.615Z,24.83
2019-02-22T15:02:50.538Z,24.77
2019-02-22T15:05:19.538Z,27.70
2019-02-22T15:07:48.532Z,23.67
2019-02-22T15:10:18.513Z,26.63
2019-02-22T15:12:48.383Z,21.23
2019-02-22T15:15:18.857Z,24.57
2019-02-22T15:17:51.134Z,25.03
2019-02-22T15:20:20.181Z,22.10
2019-02-22T15:22:49.490Z,25.60
2019-02-22T15:25:18.716Z,26.00
2019-02-22T15:27:48.195Z,25.50
2019-02-22T15:30:17.595Z,22.50
2019-02-22T15:32:46.636Z,26.53
2019-02-22T15:35:16.066Z,22.87
2019-02-22T15:37:45.216Z,25.13
2019-02-22T15:40:14.251Z,24.17
2019-02-22T15:42:44.367Z,25.17
2019-02-22T15:45:13.774Z,21.57
2019-02-22T15:47:43.040Z,24.93
2019-02-22T15:50:14.015Z,24.90
2019-02-22T15:52:43.236Z,23.10
2019-02-22T15:55:14.325Z,22.70
2019-02-22T15:57:43.106Z,27.43
2019-02-22T16:00:15.306Z,21.80
2019-02-22T16:02:44.587Z,22.57
2019-02-22T16:05:25.794Z,23.37
2019-02-22T16:07:54.743Z,50.43
2019-02-22T16:10:23.950Z,25.93
2019-02-22T16:12:53.187Z,23.77
2019-02-22T16:15:22.101Z,23.63
2019-02-22T16:17:52.228Z,24.07
2019-02-22T16:20:21.217Z,23.70
2019-02-22T16:22:51.418Z,24.77
2019-02-22T16:25:20.766Z,23.43
2019-02-22T16:27:50.072Z,22.47
2019-02-22T16:30:20.976Z,24.17
2019-02-22T16:32:50.626Z,20.40
2019-02-22T16:35:20.629Z,17.23
2019-02-22T16:37:49.685Z,23.20
2019-02-22T16:40:18.707Z,21.57
2019-02-22T16:42:47.655Z,21.73
2019-02-22T16:45:16.594Z,21.90
2019-02-22T16:47:45.807Z,24.37
2019-02-22T16:50:15.115Z,22.97
2019-02-22T16:52:45.391Z,22.07
2019-02-22T16:55:15.127Z,24.47
2019-02-22T16:57:44.151Z,22.87
2019-02-22T17:00:13.709Z,29.63
2019-02-22T17:02:42.640Z,22.60
2019-02-22T17:05:13.390Z,25.70
2019-02-22T17:07:42.628Z,21.60
2019-02-22T17:10:11.800Z,22.47
2019-02-22T17:12:40.947Z,17.53
2019-02-22T17:15:10.783Z,19.50
2019-02-22T17:17:39.667Z,14.70
2019-02-22T17:20:13.097Z,13.33
2019-02-22T17:22:42.529Z,13.20
2019-02-22T17:25:13.350Z,12.50
2019-02-22T17:27:42.606Z,14.40
2019-02-22T17:30:13.191Z,15.23
2019-02-22T17:32:42.344Z,14.63
2019-02-22T17:35:11.361Z,15.00
2019-02-22T17:37:40.526Z,11.93
2019-02-22T17:40:12.197Z,11.47
2019-02-22T17:42:41.126Z,14.30
2019-02-22T17:45:10.171Z,13.67
2019-02-22T17:47:39.878Z,15.57
2019-02-22T17:50:09.233Z,11.53
2019-02-22T17:52:38.487Z,15.20
2019-02-22T17:55:08.029Z,13.70
2019-02-22T17:57:37.347Z,19.03
2019-02-22T18:00:09.474Z,13.33
2019-02-22T18:02:38.375Z,13.80
2019-02-22T18:05:07.482Z,14.00
2019-02-22T18:07:36.674Z,14.40
2019-02-22T18:10:06.240Z,11.53
2019-02-22T18:12:35.096Z,15.03
2019-02-22T18:15:04.138Z,14.20
2019-02-22T18:17:33.372Z,14.00
2019-02-22T18:20:49.383Z,16.57
2019-02-22T18:23:18.251Z,14.53
2019-02-22T18:25:47.417Z,11.97
2019-02-22T18:28:16.357Z,14.40
2019-02-22T18:30:45.722Z,16.33
2019-02-22T18:33:14.649Z,18.10
2019-02-22T18:35:44.105Z,15.27
2019-02-22T18:38:15.244Z,17.87
2019-02-22T18:40:44.342Z,18.27
2019-02-22T18:43:13.282Z,15.87
2019-02-22T18:45:42.433Z,16.30
2019-02-22T18:48:12.001Z,17.83
2019-02-22T18:50:40.875Z,19.50
2019-02-22T18:53:10.039Z,16.23
2019-02-22T18:55:49.117Z,16.30
2019-02-22T18:58:09.786Z,18.00
2019-02-22T19:00:38.719Z,20.23
2019-02-22T19:03:08.050Z,18.37
2019-02-22T19:05:36.910Z,16.33
2019-02-22T19:08:06.142Z,15.60
2019-02-22T19:10:35.009Z,20.43
2019-02-22T19:13:04.341Z,23.80
2019-02-22T19:15:33.350Z,25.47
2019-02-22T19:18:02.944Z,23.63
2019-02-22T19:20:31.831Z,26.47
2019-02-22T19:23:01.331Z,22.90
2019-02-22T19:25:30.189Z,17.87
2019-02-22T19:28:00.263Z,19.43
2019-02-22T19:30:29.244Z,18.00
2019-02-22T19:32:58.554Z,14.70
2019-02-22T19:35:27.831Z,17.40
2019-02-22T19:37:56.761Z,15.47
2019-02-22T19:40:25.826Z,17.60
2019-02-22T19:42:55.030Z,16.00
2019-02-22T19:45:24.261Z,16.50
2019-02-22T19:47:53.192Z,14.77
2019-02-22T19:50:22.052Z,18.13
2019-02-22T19:52:51.201Z,18.10
2019-02-22T19:55:20.218Z,17.13
2019-02-22T19:57:49.396Z,15.90
2019-02-22T20:00:18.328Z,18.87
2019-02-22T20:02:47.423Z,16.90
2019-02-22T20:05:16.639Z,20.57
2019-02-22T20:07:45.581Z,21.73
2019-02-22T20:10:18.228Z,17.87
2019-02-22T20:12:46.193Z,21.50
2019-02-22T20:15:16.038Z,19.97
2019-02-22T20:17:53.023Z,21.00
2019-02-22T20:20:16.014Z,18.53
2019-02-22T20:22:45.572Z,19.40
2019-02-22T20:25:14.519Z,22.47
2019-02-22T20:27:43.455Z,20.70
2019-02-22T20:30:14.431Z,18.20
2019-02-22T20:32:43.402Z,20.80
2019-02-22T20:35:14.930Z,18.90
2019-02-22T20:37:51.742Z,24.20
2019-02-22T20:40:14.874Z,21.57
2019-02-22T20:42:44.415Z,20.40
2019-02-22T20:45:13.906Z,20.97
2019-02-22T20:47:42.850Z,19.30
2019-02-22T20:50:11.827Z,20.43
2019-02-22T20:52:40.673Z,19.87
2019-02-22T20:55:11.487Z,20.97
2019-02-22T20:57:40.710Z,19.57
2019-02-22T21:00:11.828Z,23.63
2019-02-22T21:02:40.673Z,20.60
2019-02-22T21:05:10.006Z,23.17
2019-02-22T21:07:39.231Z,22.10
2019-02-22T21:10:11.041Z,24.10
2019-02-22T21:12:40.023Z,19.97
2019-02-22T21:15:10.755Z,23.73
2019-02-22T21:17:39.704Z,23.67
2019-02-22T21:20:10.158Z,23.97
2019-02-22T21:22:39.008Z,21.00
2019-02-22T21:25:12.461Z,23.93
2019-02-22T21:27:41.738Z,21.97
2019-02-22T21:30:12.677Z,25.13
2019-02-22T21:33:00.813Z,27.33
2019-02-22T21:35:34.531Z,21.27
2019-02-22T21:38:05.037Z,22.10
2019-02-22T21:40:33.993Z,22.63
2019-02-22T21:43:03.251Z,22.43
2019-02-22T21:45:33.057Z,22.77
2019-02-22T21:48:02.049Z,21.63
2019-02-22T21:50:31.451Z,24.33
2019-02-22T21:53:00.748Z,24.07
2019-02-22T21:55:29.689Z,24.83
2019-02-22T21:57:58.947Z,33.03
2019-02-22T22:00:28.001Z,27.33
2019-02-22T22:02:57.430Z,29.20
2019-02-22T22:05:26.731Z,26.83
2019-02-22T22:07:56.055Z,30.73
2019-02-22T22:10:25.077Z,26.10
2019-02-22T22:12:54.635Z,41.73
2019-02-22T22:15:23.939Z,32.50
2019-02-22T22:17:52.870Z,32.40
2019-02-22T22:20:22.506Z,28.53
2019-02-22T22:22:51.841Z,30.37
2019-02-22T22:25:21.686Z,28.63
2019-02-22T22:27:51.322Z,24.20
2019-02-22T22:30:20.635Z,23.70
2019-02-22T22:32:52.281Z,28.67
2019-02-22T22:35:20.603Z,24.47
2019-02-22T22:37:49.561Z,26.30
2019-02-22T22:40:18.432Z,22.80
2019-02-22T22:42:47.938Z,26.23
2019-02-22T22:45:17.319Z,22.40
2019-02-22T22:47:46.285Z,20.03
2019-02-22T22:50:15.231Z,20.57
2019-02-22T22:52:44.237Z,17.40
2019-02-22T22:55:13.589Z,19.47
2019-02-22T22:57:43.021Z,16.93
2019-02-22T23:01:02.946Z,16.57
2019-02-22T23:03:31.917Z,21.23
2019-02-22T23:06:00.969Z,22.10
2019-02-22T23:08:30.372Z,18.70
2019-02-22T23:10:59.770Z,20.07
2019-02-22T23:13:28.777Z,22.50
2019-02-22T23:15:57.814Z,21.47
2019-02-22T23:18:26.805Z,18.57
2019-02-22T23:20:55.767Z,18.47
2019-02-22T23:23:24.714Z,20.83
2019-02-22T23:25:53.971Z,18.30
2019-02-22T23:28:22.826Z,18.37
2019-02-22T23:30:52.027Z,25.70
2019-02-22T23:33:21.323Z,21.73
2019-02-22T23:35:50.545Z,18.80
2019-02-22T23:38:20.174Z,24.93
2019-02-22T23:40:49.180Z,18.27
2019-02-22T23:43:18.422Z,22.23
2019-02-22T23:45:47.759Z,18.60
2019-02-22T23:48:16.966Z,18.50
2019-02-22T23:50:46.000Z,21.27
2019-02-22T23:53:15.224Z,20.70
2019-02-22T23:55:44.414Z,16.40
2019-02-22T23:58:13.841Z,22.97
